createdAt,value
2018-01-24T00:00:51.973Z,1011.82
2018-01-24T00:01:51.953Z,1011.81
2018-01-24T00:02:51.935Z,1011.78
2018-01-24T00:03:51.919Z,1011.83
2018-01-24T00:04:51.875Z,1011.85
2018-01-24T00:05:51.841Z,1011.77
2018-01-24T00:06:51.820Z,1011.81
2018-01-24T00:07:51.803Z,1011.80
2018-01-24T00:08:51.777Z,1011.76
2018-01-24T00:09:51.764Z,1011.68
2018-01-24T00:10:51.725Z,1011.79
2018-01-24T00:11:51.700Z,1011.72
2018-01-24T00:12:51.666Z,1011.68
2018-01-24T00:13:51.636Z,1011.61
2018-01-24T00:14:51.620Z,1011.66
2018-01-24T00:15:51.590Z,1011.65
2018-01-24T00:16:51.599Z,1011.62
2018-01-24T00:17:51.538Z,1011.54
2018-01-24T00:18:51.515Z,1011.45
2018-01-24T00:19:51.491Z,1011.51
2018-01-24T00:20:51.472Z,1011.49
2018-01-24T00:21:51.435Z,1011.48
2018-01-24T00:22:51.409Z,1011.47
2018-01-24T00:23:51.391Z,1011.42
2018-01-24T00:24:51.357Z,1011.47
2018-01-24T00:25:51.331Z,1011.46
2018-01-24T00:26:51.321Z,1011.50
2018-01-24T00:27:51.279Z,1011.48
2018-01-24T00:28:51.263Z,1011.42
2018-01-24T00:29:51.235Z,1011.44
2018-01-24T00:30:51.216Z,1011.44
2018-01-24T00:31:51.184Z,1011.42
2018-01-24T00:32:51.173Z,1011.47
2018-01-24T00:33:51.124Z,1011.47
2018-01-24T00:34:51.113Z,1011.49
2018-01-24T00:35:51.080Z,1011.50
2018-01-24T00:36:51.071Z,1011.43
2018-01-24T00:37:51.021Z,1011.39
2018-01-24T00:38:50.995Z,1011.40
2018-01-24T00:39:50.992Z,1011.36
2018-01-24T00:40:50.950Z,1011.31
2018-01-24T00:41:50.944Z,1011.29
2018-01-24T00:42:50.912Z,1011.26
2018-01-24T00:43:50.881Z,1011.26
2018-01-24T00:44:50.856Z,1011.29
2018-01-24T00:45:50.819Z,1011.27
2018-01-24T00:46:50.800Z,1011.27
2018-01-24T00:47:50.769Z,1011.27
2018-01-24T00:48:50.739Z,1011.34
2018-01-24T00:49:50.721Z,1011.32
2018-01-24T00:50:50.688Z,1011.31
2018-01-24T00:51:50.684Z,1011.27
2018-01-24T00:52:50.640Z,1011.27
2018-01-24T00:53:50.616Z,1011.31
2018-01-24T00:54:50.597Z,1011.35
2018-01-24T00:55:50.564Z,1011.32
2018-01-24T00:56:50.531Z,1011.34
2018-01-24T00:57:50.523Z,1011.39
2018-01-24T00:58:50.483Z,1011.37
2018-01-24T00:59:50.472Z,1011.36
2018-01-24T01:00:50.444Z,1011.32
2018-01-24T01:01:50.416Z,1011.30
2018-01-24T01:02:50.382Z,1011.28
2018-01-24T01:03:50.377Z,1011.30
2018-01-24T01:04:50.337Z,1011.26
2018-01-24T01:05:50.309Z,1011.27
2018-01-24T01:06:50.283Z,1011.36
2018-01-24T01:07:50.271Z,1011.38
2018-01-24T01:08:50.232Z,1011.41
2018-01-24T01:09:50.237Z,1011.28
2018-01-24T01:10:50.182Z,1011.27
2018-01-24T01:11:50.158Z,1011.35
2018-01-24T01:12:50.138Z,1011.35
2018-01-24T01:13:50.108Z,1011.35
2018-01-24T01:14:50.085Z,1011.41
2018-01-24T01:15:50.056Z,1011.38
2018-01-24T01:16:50.029Z,1011.40
2018-01-24T01:17:49.997Z,1011.44
2018-01-24T01:18:49.990Z,1011.40
2018-01-24T01:19:49.960Z,1011.37
2018-01-24T01:20:49.935Z,1011.35
2018-01-24T01:21:49.893Z,1011.35
2018-01-24T01:22:49.910Z,1011.36
2018-01-24T01:23:49.847Z,1011.38
2018-01-24T01:24:49.823Z,1011.42
2018-01-24T01:25:49.804Z,1011.37
2018-01-24T01:26:49.773Z,1011.41
2018-01-24T01:27:49.756Z,1011.44
2018-01-24T01:28:49.744Z,1011.41
2018-01-24T01:29:49.702Z,1011.44
2018-01-24T01:30:49.670Z,1011.43
2018-01-24T01:31:49.657Z,1011.40
2018-01-24T01:32:49.618Z,1011.39
2018-01-24T01:33:49.664Z,1011.41
2018-01-24T01:34:49.593Z,1011.48
2018-01-24T01:35:49.542Z,1011.51
2018-01-24T01:36:49.512Z,1011.51
2018-01-24T01:37:49.511Z,1011.50
2018-01-24T01:38:49.484Z,1011.51
2018-01-24T01:39:49.459Z,1011.51
2018-01-24T01:40:49.423Z,1011.53
2018-01-24T01:41:49.396Z,1011.46
2018-01-24T01:42:49.370Z,1011.48
2018-01-24T01:43:49.354Z,1011.44
2018-01-24T01:44:49.320Z,1011.48
2018-01-24T01:45:49.286Z,1011.50
2018-01-24T01:46:49.270Z,1011.44
2018-01-24T01:47:49.266Z,1011.46
2018-01-24T01:48:49.232Z,1011.47
2018-01-24T01:49:49.192Z,1011.49
2018-01-24T01:50:49.159Z,1011.46
2018-01-24T01:51:49.142Z,1011.43
2018-01-24T01:52:49.121Z,1011.40
2018-01-24T01:53:49.084Z,1011.44
2018-01-24T01:54:49.067Z,1011.46
2018-01-24T01:55:49.061Z,1011.32
2018-01-24T01:56:49.029Z,1011.33
2018-01-24T01:57:48.993Z,1011.34
2018-01-24T01:58:48.967Z,1011.35
2018-01-24T01:59:48.958Z,1011.42
2018-01-24T02:00:48.922Z,1011.41
2018-01-24T02:01:48.896Z,1011.43
2018-01-24T02:02:48.869Z,1011.47
2018-01-24T02:03:48.836Z,1011.47
2018-01-24T02:04:48.815Z,1011.42
2018-01-24T02:05:48.794Z,1011.41
2018-01-24T02:06:48.769Z,1011.44
2018-01-24T02:07:48.743Z,1011.47
2018-01-24T02:08:48.713Z,1011.43
2018-01-24T02:09:48.692Z,1011.46
2018-01-24T02:10:48.669Z,1011.46
2018-01-24T02:11:48.642Z,1011.44
2018-01-24T02:12:48.609Z,1011.47
2018-01-24T02:13:48.593Z,1011.47
2018-01-24T02:14:48.574Z,1011.51
2018-01-24T02:15:48.554Z,1011.51
2018-01-24T02:16:48.521Z,1011.54
2018-01-24T02:17:48.502Z,1011.49
2018-01-24T02:18:48.467Z,1011.48
2018-01-24T02:19:48.458Z,1011.49
2018-01-24T02:20:48.436Z,1011.51
2018-01-24T02:21:48.411Z,1011.56
2018-01-24T02:22:48.364Z,1011.55
2018-01-24T02:23:48.341Z,1011.52
2018-01-24T02:24:48.332Z,1011.52
2018-01-24T02:25:48.300Z,1011.55
2018-01-24T02:26:48.307Z,1011.51
2018-01-24T02:27:48.250Z,1011.56
2018-01-24T02:28:48.218Z,1011.49
2018-01-24T02:29:48.203Z,1011.47
2018-01-24T02:30:48.182Z,1011.49
2018-01-24T02:31:48.147Z,1011.53
2018-01-24T02:32:48.122Z,1011.52
2018-01-24T02:33:48.097Z,1011.52
2018-01-24T02:34:48.079Z,1011.54
2018-01-24T02:35:48.060Z,1011.54
2018-01-24T02:36:48.028Z,1011.51
2018-01-24T02:37:48.014Z,1011.50
2018-01-24T02:38:47.973Z,1011.52
2018-01-24T02:39:47.960Z,1011.50
2018-01-24T02:40:47.930Z,1011.48
2018-01-24T02:41:47.968Z,1011.52
2018-01-24T02:42:47.879Z,1011.42
2018-01-24T02:43:47.862Z,1011.44
2018-01-24T02:44:47.864Z,1011.36
2018-01-24T02:45:47.798Z,1011.37
2018-01-24T02:46:47.787Z,1011.39
2018-01-24T02:47:47.749Z,1011.28
2018-01-24T02:48:47.731Z,1011.23
2018-01-24T02:49:47.702Z,1011.30
2018-01-24T02:50:47.672Z,1011.33
2018-01-24T02:51:47.646Z,1011.30
2018-01-24T02:52:47.634Z,1011.30
2018-01-24T02:53:47.598Z,1011.34
2018-01-24T02:54:47.598Z,1011.34
2018-01-24T02:55:47.553Z,1011.33
2018-01-24T02:56:47.530Z,1011.32
2018-01-24T02:57:47.518Z,1011.32
2018-01-24T02:58:47.486Z,1011.32
2018-01-24T02:59:47.466Z,1011.38
2018-01-24T03:00:47.446Z,1011.36
2018-01-24T03:01:47.413Z,1011.38
2018-01-24T03:02:47.403Z,1011.43
2018-01-24T03:03:47.384Z,1011.45
2018-01-24T03:04:47.334Z,1011.41
2018-01-24T03:05:47.327Z,1011.40
2018-01-24T03:06:47.281Z,1011.38
2018-01-24T03:07:47.263Z,1011.38
2018-01-24T03:08:47.241Z,1011.39
2018-01-24T03:09:47.213Z,1011.37
2018-01-24T03:10:47.194Z,1011.38
2018-01-24T03:11:47.173Z,1011.34
2018-01-24T03:12:47.142Z,1011.36
2018-01-24T03:13:47.117Z,1011.35
2018-01-24T03:14:47.098Z,1011.26
2018-01-24T03:15:47.064Z,1011.34
2018-01-24T03:16:47.041Z,1011.35
2018-01-24T03:17:47.015Z,1011.33
2018-01-24T03:18:47.021Z,1011.33
2018-01-24T03:19:46.964Z,1011.33
2018-01-24T03:20:46.940Z,1011.34
2018-01-24T03:21:46.914Z,1011.28
2018-01-24T03:22:46.909Z,1011.35
2018-01-24T03:23:46.881Z,1011.33
2018-01-24T03:24:46.860Z,1011.33
2018-01-24T03:25:46.822Z,1011.31
2018-01-24T03:26:46.828Z,1011.31
2018-01-24T03:27:46.788Z,1011.29
2018-01-24T03:28:46.755Z,1011.32
2018-01-24T03:29:46.721Z,1011.32
2018-01-24T03:30:46.726Z,1011.32
2018-01-24T03:31:46.680Z,1011.32
2018-01-24T03:32:46.649Z,1011.27
2018-01-24T03:33:46.630Z,1011.28
2018-01-24T03:34:46.613Z,1011.22
2018-01-24T03:35:46.585Z,1011.26
2018-01-24T03:36:46.575Z,1011.27
2018-01-24T03:37:46.542Z,1011.28
2018-01-24T03:38:46.499Z,1011.23
2018-01-24T03:39:46.488Z,1011.28
2018-01-24T03:40:46.499Z,1011.23
2018-01-24T03:41:46.433Z,1011.24
2018-01-24T03:42:46.403Z,1011.24
2018-01-24T03:43:46.399Z,1011.31
2018-01-24T03:44:46.359Z,1011.29
2018-01-24T03:45:46.329Z,1011.32
2018-01-24T03:46:46.312Z,1011.31
2018-01-24T03:47:46.302Z,1011.26
2018-01-24T03:48:46.272Z,1011.31
2018-01-24T03:49:46.232Z,1011.27
2018-01-24T03:50:46.221Z,1011.27
2018-01-24T03:51:46.191Z,1011.33
2018-01-24T03:52:46.178Z,1011.33
2018-01-24T03:53:46.140Z,1011.34
2018-01-24T03:54:46.133Z,1011.33
2018-01-24T03:55:46.100Z,1011.34
2018-01-24T03:56:46.087Z,1011.35
2018-01-24T03:57:46.050Z,1011.41
2018-01-24T03:58:46.011Z,1011.39
2018-01-24T03:59:46.010Z,1011.38
2018-01-24T04:00:45.968Z,1011.40
2018-01-24T04:01:45.947Z,1011.38
2018-01-24T04:02:45.922Z,1011.35
2018-01-24T04:03:45.913Z,1011.37
2018-01-24T04:04:45.874Z,1011.31
2018-01-24T04:05:45.855Z,1011.35
2018-01-24T04:06:45.822Z,1011.37
2018-01-24T04:07:45.810Z,1011.36
2018-01-24T04:08:45.780Z,1011.36
2018-01-24T04:09:45.756Z,1011.40
2018-01-24T04:10:45.725Z,1011.41
2018-01-24T04:11:45.705Z,1011.43
2018-01-24T04:12:45.678Z,1011.39
2018-01-24T04:13:45.652Z,1011.42
2018-01-24T04:14:45.637Z,1011.44
2018-01-24T04:15:45.605Z,1011.38
2018-01-24T04:16:45.579Z,1011.38
2018-01-24T04:17:45.577Z,1011.34
2018-01-24T04:18:45.539Z,1011.35
2018-01-24T04:19:45.509Z,1011.33
2018-01-24T04:20:45.485Z,1011.30
2018-01-24T04:21:45.462Z,1011.26
2018-01-24T04:22:45.435Z,1011.31
2018-01-24T04:23:45.417Z,1011.31
2018-01-24T04:24:45.390Z,1011.29
2018-01-24T04:25:45.361Z,1011.27
2018-01-24T04:26:45.348Z,1011.33
2018-01-24T04:27:45.318Z,1011.25
2018-01-24T04:28:45.303Z,1011.26
2018-01-24T04:29:45.260Z,1011.29
2018-01-24T04:30:45.246Z,1011.24
2018-01-24T04:31:45.226Z,1011.23
2018-01-24T04:32:45.197Z,1011.27
2018-01-24T04:33:45.168Z,1011.23
2018-01-24T04:34:45.142Z,1011.26
2018-01-24T04:35:45.141Z,1011.27
2018-01-24T04:36:45.104Z,1011.21
2018-01-24T04:37:45.067Z,1011.18
2018-01-24T04:38:45.050Z,1011.23
2018-01-24T04:39:45.039Z,1011.22
2018-01-24T04:40:45.003Z,1011.20
2018-01-24T04:41:44.985Z,1011.20
2018-01-24T04:42:44.946Z,1011.22
2018-01-24T04:43:44.929Z,1011.20
2018-01-24T04:44:44.913Z,1011.16
2018-01-24T04:45:44.895Z,1011.18
2018-01-24T04:46:44.868Z,1011.14
2018-01-24T04:47:44.831Z,1011.14
2018-01-24T04:48:44.802Z,1011.17
2018-01-24T04:49:44.788Z,1011.13
2018-01-24T04:50:44.763Z,1011.14
2018-01-24T04:51:44.770Z,1011.13
2018-01-24T04:52:44.710Z,1011.12
2018-01-24T04:53:44.686Z,1011.06
2018-01-24T04:54:44.659Z,1011.10
2018-01-24T04:55:44.656Z,1011.10
2018-01-24T04:56:44.619Z,1011.09
2018-01-24T04:57:44.587Z,1011.08
2018-01-24T04:58:44.574Z,1011.14
2018-01-24T04:59:44.571Z,1011.15
2018-01-24T05:00:44.531Z,1011.10
2018-01-24T05:01:44.489Z,1011.13
2018-01-24T05:02:44.469Z,1011.11
2018-01-24T05:03:44.442Z,1011.17
2018-01-24T05:04:44.423Z,1011.16
2018-01-24T05:05:44.400Z,1011.13
2018-01-24T05:06:44.371Z,1011.15
2018-01-24T05:07:44.339Z,1011.11
2018-01-24T05:08:44.335Z,1011.11
2018-01-24T05:09:44.308Z,1011.16
2018-01-24T05:10:44.277Z,1011.13
2018-01-24T05:11:44.246Z,1011.14
2018-01-24T05:12:44.224Z,1011.09
2018-01-24T05:13:44.203Z,1011.15
2018-01-24T05:14:44.184Z,1011.17
2018-01-24T05:15:44.160Z,1011.18
2018-01-24T05:16:44.129Z,1011.19
2018-01-24T05:17:44.116Z,1011.14
2018-01-24T05:18:44.093Z,1011.12
2018-01-24T05:19:45.474Z,1011.17
2018-01-24T05:20:45.351Z,1011.14
2018-01-24T05:21:44.586Z,1011.18
2018-01-24T05:22:44.002Z,1011.13
2018-01-24T05:23:43.958Z,1011.15
2018-01-24T05:24:43.932Z,1011.15
2018-01-24T05:25:43.912Z,1011.15
2018-01-24T05:26:43.934Z,1011.13
2018-01-24T05:27:43.890Z,1011.11
2018-01-24T05:28:43.839Z,1011.10
2018-01-24T05:29:43.831Z,1011.13
2018-01-24T05:30:43.805Z,1011.11
2018-01-24T05:31:43.793Z,1011.07
2018-01-24T05:32:43.745Z,1011.07
2018-01-24T05:33:43.726Z,1011.09
2018-01-24T05:34:43.695Z,1011.08
2018-01-24T05:35:43.671Z,1011.09
2018-01-24T05:36:43.649Z,1011.06
2018-01-24T05:37:43.645Z,1011.06
2018-01-24T05:38:43.612Z,1011.02
2018-01-24T05:39:43.576Z,1011.06
2018-01-24T05:40:43.551Z,1011.05
2018-01-24T05:41:43.521Z,1011.02
2018-01-24T05:42:43.505Z,1011.02
2018-01-24T05:43:43.483Z,1011.04
2018-01-24T05:44:43.454Z,1011.03
2018-01-24T05:45:43.436Z,1011.02
2018-01-24T05:46:43.412Z,1011.02
2018-01-24T05:47:43.381Z,1011.00
2018-01-24T05:48:43.369Z,1011.02
2018-01-24T05:49:43.331Z,1010.92
2018-01-24T05:50:43.317Z,1010.89
2018-01-24T05:51:43.286Z,1010.89
2018-01-24T05:52:43.291Z,1010.88
2018-01-24T05:53:43.243Z,1010.79
2018-01-24T05:54:43.211Z,1010.84
2018-01-24T05:55:43.238Z,1010.87
2018-01-24T05:56:43.170Z,1010.84
2018-01-24T05:57:43.151Z,1010.78
2018-01-24T05:58:43.114Z,1010.79
2018-01-24T05:59:43.103Z,1010.74
2018-01-24T06:00:43.071Z,1010.75
2018-01-24T06:01:43.044Z,1010.67
2018-01-24T06:02:43.025Z,1010.73
2018-01-24T06:03:43.012Z,1010.67
2018-01-24T06:04:42.980Z,1010.73
2018-01-24T06:05:42.944Z,1010.71
2018-01-24T06:06:42.946Z,1010.69
2018-01-24T06:07:42.898Z,1010.70
2018-01-24T06:08:42.875Z,1010.72
2018-01-24T06:09:42.847Z,1010.74
2018-01-24T06:10:42.842Z,1010.72
2018-01-24T06:11:42.802Z,1010.72
2018-01-24T06:12:42.780Z,1010.69
2018-01-24T06:13:42.760Z,1010.73
2018-01-24T06:14:42.733Z,1010.71
2018-01-24T06:15:42.705Z,1010.63
2018-01-24T06:16:42.684Z,1010.61
2018-01-24T06:17:42.651Z,1010.66
2018-01-24T06:18:42.631Z,1010.66
2018-01-24T06:19:42.606Z,1010.63
2018-01-24T06:20:42.582Z,1010.69
2018-01-24T06:21:42.555Z,1010.63
2018-01-24T06:22:42.537Z,1010.64
2018-01-24T06:23:42.514Z,1010.59
2018-01-24T06:24:42.493Z,1010.64
2018-01-24T06:25:42.463Z,1010.68
2018-01-24T06:26:42.459Z,1010.66
2018-01-24T06:27:42.416Z,1010.64
2018-01-24T06:28:42.394Z,1010.56
2018-01-24T06:29:42.366Z,1010.62
2018-01-24T06:30:42.340Z,1010.57
2018-01-24T06:31:42.316Z,1010.62
2018-01-24T06:32:42.289Z,1010.54
2018-01-24T06:33:42.293Z,1010.48
2018-01-24T06:34:42.274Z,1010.51
2018-01-24T06:35:42.240Z,1010.62
2018-01-24T06:36:42.196Z,1010.61
2018-01-24T06:37:42.171Z,1010.65
2018-01-24T06:38:42.147Z,1010.58
2018-01-24T06:39:42.129Z,1010.62
2018-01-24T06:40:42.100Z,1010.54
2018-01-24T06:41:42.086Z,1010.60
2018-01-24T06:42:42.055Z,1010.56
2018-01-24T06:43:42.029Z,1010.54
2018-01-24T06:44:42.003Z,1010.65
2018-01-24T06:45:41.979Z,1010.61
2018-01-24T06:46:41.955Z,1010.57
2018-01-24T06:47:41.928Z,1010.58
2018-01-24T06:48:41.904Z,1010.59
2018-01-24T06:49:41.884Z,1010.66
2018-01-24T06:50:41.864Z,1010.52
2018-01-24T06:51:41.828Z,1010.42
2018-01-24T06:52:41.809Z,1010.52
2018-01-24T06:53:41.784Z,1010.51
2018-01-24T06:54:41.753Z,1010.56
2018-01-24T06:55:41.736Z,1010.48
2018-01-24T06:56:41.706Z,1010.50
2018-01-24T06:57:41.685Z,1010.56
2018-01-24T06:58:41.665Z,1010.53
2018-01-24T06:59:41.633Z,1010.54
2018-01-24T07:00:41.624Z,1010.53
2018-01-24T07:01:41.605Z,1010.54
2018-01-24T07:02:41.565Z,1010.47
2018-01-24T07:03:41.537Z,1010.40
2018-01-24T07:04:41.511Z,1010.43
2018-01-24T07:05:41.495Z,1010.41
2018-01-24T07:06:41.470Z,1010.42
2018-01-24T07:07:41.455Z,1010.35
2018-01-24T07:08:41.423Z,1010.33
2018-01-24T07:09:41.400Z,1010.38
2018-01-24T07:10:41.385Z,1010.37
2018-01-24T07:11:41.347Z,1010.31
2018-01-24T07:12:41.322Z,1010.37
2018-01-24T07:13:41.294Z,1010.38
2018-01-24T07:14:41.270Z,1010.32
2018-01-24T07:15:41.252Z,1010.30
2018-01-24T07:16:41.233Z,1010.30
2018-01-24T07:17:41.200Z,1010.39
2018-01-24T07:18:41.180Z,1010.39
2018-01-24T07:19:41.156Z,1010.44
2018-01-24T07:20:41.131Z,1010.37
2018-01-24T07:21:41.108Z,1010.34
2018-01-24T07:22:41.140Z,1010.32
2018-01-24T07:23:41.056Z,1010.30
2018-01-24T07:24:41.035Z,1010.26
2018-01-24T07:25:41.893Z,1010.38
2018-01-24T07:26:40.991Z,1010.39
2018-01-24T07:27:40.966Z,1010.39
2018-01-24T07:28:40.987Z,1010.39
2018-01-24T07:29:40.916Z,1010.39
2018-01-24T07:30:40.890Z,1010.37
2018-01-24T07:31:40.861Z,1010.37
2018-01-24T07:32:40.841Z,1010.35
2018-01-24T07:33:40.813Z,1010.33
2018-01-24T07:34:40.794Z,1010.33
2018-01-24T07:35:40.768Z,1010.29
2018-01-24T07:36:40.740Z,1010.26
2018-01-24T07:37:40.718Z,1010.28
2018-01-24T07:38:40.702Z,1010.25
2018-01-24T07:39:40.684Z,1010.31
2018-01-24T07:40:40.654Z,1010.30
2018-01-24T07:41:40.640Z,1010.28
2018-01-24T07:42:40.601Z,1010.29
2018-01-24T07:43:40.578Z,1010.31
2018-01-24T07:44:40.560Z,1010.30
2018-01-24T07:45:40.544Z,1010.24
2018-01-24T07:46:40.509Z,1010.25
2018-01-24T07:47:40.484Z,1010.24
2018-01-24T07:48:40.458Z,1010.23
2018-01-24T07:49:40.437Z,1010.23
2018-01-24T07:50:40.408Z,1010.29
2018-01-24T07:51:40.388Z,1010.28
2018-01-24T07:52:40.373Z,1010.30
2018-01-24T07:53:40.339Z,1010.29
2018-01-24T07:54:40.323Z,1010.34
2018-01-24T07:55:40.301Z,1010.29
2018-01-24T07:56:40.268Z,1010.32
2018-01-24T07:57:40.248Z,1010.24
2018-01-24T07:58:40.239Z,1010.24
2018-01-24T07:59:40.209Z,1010.26
2018-01-24T08:00:40.178Z,1010.30
2018-01-24T08:01:40.161Z,1010.34
2018-01-24T08:02:40.163Z,1010.31
2018-01-24T08:03:40.098Z,1010.36
2018-01-24T08:04:40.083Z,1010.28
2018-01-24T08:05:40.056Z,1010.39
2018-01-24T08:06:40.039Z,1010.34
2018-01-24T08:07:40.022Z,1010.26
2018-01-24T08:08:39.998Z,1010.30
2018-01-24T08:09:39.958Z,1010.32
2018-01-24T08:10:39.952Z,1010.37
2018-01-24T08:11:39.912Z,1010.27
2018-01-24T08:12:39.888Z,1010.26
2018-01-24T08:13:39.863Z,1010.30
2018-01-24T08:14:39.841Z,1010.25
2018-01-24T08:15:39.827Z,1010.29
2018-01-24T08:16:39.791Z,1010.27
2018-01-24T08:17:39.765Z,1010.25
2018-01-24T08:18:39.755Z,1010.21
2018-01-24T08:19:40.033Z,1010.32
2018-01-24T08:20:39.709Z,1010.27
2018-01-24T08:21:39.674Z,1010.31
2018-01-24T08:22:39.645Z,1010.21
2018-01-24T08:23:39.623Z,1010.26
2018-01-24T08:24:39.600Z,1010.27
2018-01-24T08:25:39.584Z,1010.28
2018-01-24T08:26:39.553Z,1010.17
2018-01-24T08:27:39.521Z,1010.21
2018-01-24T08:28:39.502Z,1010.22
2018-01-24T08:29:39.474Z,1010.13
2018-01-24T08:30:39.492Z,1010.14
2018-01-24T08:31:39.599Z,1010.08
2018-01-24T08:32:39.402Z,1010.04
2018-01-24T08:33:39.381Z,1010.01
2018-01-24T08:34:39.395Z,1010.07
2018-01-24T08:35:39.350Z,1010.07
2018-01-24T08:36:39.315Z,1010.07
2018-01-24T08:37:39.288Z,1010.09
2018-01-24T08:38:39.296Z,1010.08
2018-01-24T08:39:39.241Z,1010.02
2018-01-24T08:40:39.218Z,1010.01
2018-01-24T08:41:39.196Z,1010.04
2018-01-24T08:42:39.169Z,1010.11
2018-01-24T08:43:39.173Z,1010.03
2018-01-24T08:44:39.133Z,1010.04
2018-01-24T08:45:39.100Z,1010.05
2018-01-24T08:46:39.077Z,1010.03
2018-01-24T08:47:39.066Z,1010.00
2018-01-24T08:48:39.119Z,1010.07
2018-01-24T08:49:39.812Z,1009.99
2018-01-24T08:50:38.995Z,1009.97
2018-01-24T08:51:38.965Z,1010.00
2018-01-24T08:52:38.935Z,1010.00
2018-01-24T08:53:38.973Z,1009.98
2018-01-24T08:54:38.890Z,1009.98
2018-01-24T08:55:38.863Z,1009.94
2018-01-24T08:56:38.839Z,1009.92
2018-01-24T08:57:38.834Z,1009.88
2018-01-24T08:58:38.809Z,1009.94
2018-01-24T08:59:38.794Z,1009.92
2018-01-24T09:00:38.748Z,1009.86
2018-01-24T09:01:38.721Z,1009.91
2018-01-24T09:02:38.704Z,1009.87
2018-01-24T09:03:38.687Z,1009.86
2018-01-24T09:04:38.645Z,1009.87
2018-01-24T09:05:38.635Z,1009.85
2018-01-24T09:06:38.610Z,1009.80
2018-01-24T09:07:38.574Z,1009.79
2018-01-24T09:08:38.551Z,1009.86
2018-01-24T09:09:38.535Z,1009.77
2018-01-24T09:10:38.508Z,1009.84
2018-01-24T09:11:38.480Z,1009.74
2018-01-24T09:12:38.463Z,1009.83
2018-01-24T09:13:38.440Z,1009.76
2018-01-24T09:14:38.417Z,1009.80
2018-01-24T09:15:38.400Z,1009.78
2018-01-24T09:16:38.364Z,1009.78
2018-01-24T09:17:38.353Z,1009.73
2018-01-24T09:18:38.325Z,1009.72
2018-01-24T09:19:38.296Z,1009.72
2018-01-24T09:20:38.284Z,1009.76
2018-01-24T09:21:38.247Z,1009.73
2018-01-24T09:22:38.227Z,1009.77
2018-01-24T09:23:38.216Z,1009.72
2018-01-24T09:24:38.190Z,1009.74
2018-01-24T09:25:38.154Z,1009.73
2018-01-24T09:26:38.132Z,1009.77
2018-01-24T09:27:38.110Z,1009.76
2018-01-24T09:28:38.086Z,1009.76
2018-01-24T09:29:38.064Z,1009.72
2018-01-24T09:30:38.037Z,1009.70
2018-01-24T09:31:38.022Z,1009.74
2018-01-24T09:32:37.993Z,1009.69
2018-01-24T09:33:38.004Z,1009.65
2018-01-24T09:34:37.965Z,1009.61
2018-01-24T09:35:37.928Z,1009.64
2018-01-24T09:36:37.898Z,1009.61
2018-01-24T09:37:37.879Z,1009.64
2018-01-24T09:38:37.862Z,1009.62
2018-01-24T09:39:37.848Z,1009.63
2018-01-24T09:40:37.823Z,1009.67
2018-01-24T09:41:37.784Z,1009.65
2018-01-24T09:42:37.758Z,1009.57
2018-01-24T09:43:37.758Z,1009.59
2018-01-24T09:44:37.717Z,1009.67
2018-01-24T09:45:37.690Z,1009.64
2018-01-24T09:46:37.711Z,1009.63
2018-01-24T09:47:37.644Z,1009.57
2018-01-24T09:48:37.622Z,1009.54
2018-01-24T09:49:37.607Z,1009.54
2018-01-24T09:50:37.606Z,1009.59
2018-01-24T09:51:37.561Z,1009.55
2018-01-24T09:52:37.549Z,1009.58
2018-01-24T09:53:37.511Z,1009.56
2018-01-24T09:54:37.487Z,1009.54
2018-01-24T09:55:37.457Z,1009.59
2018-01-24T09:56:37.446Z,1009.58
2018-01-24T09:57:37.411Z,1009.63
2018-01-24T09:58:37.390Z,1009.57
2018-01-24T09:59:37.405Z,1009.55
2018-01-24T10:00:37.343Z,1009.57
2018-01-24T10:01:37.324Z,1009.64
2018-01-24T10:02:37.305Z,1009.61
2018-01-24T10:03:37.299Z,1009.57
2018-01-24T10:04:37.253Z,1009.56
2018-01-24T10:05:37.226Z,1009.51
2018-01-24T10:06:37.220Z,1009.55
2018-01-24T10:07:37.194Z,1009.50
2018-01-24T10:08:37.159Z,1009.50
2018-01-24T10:09:37.140Z,1009.43
2018-01-24T10:10:37.119Z,1009.38
2018-01-24T10:11:37.095Z,1009.45
2018-01-24T10:12:37.074Z,1009.38
2018-01-24T10:13:37.053Z,1009.41
2018-01-24T10:14:37.039Z,1009.47
2018-01-24T10:15:36.993Z,1009.22
2018-01-24T10:16:36.975Z,1009.30
2018-01-24T10:17:36.951Z,1009.34
2018-01-24T10:18:36.932Z,1009.31
2018-01-24T10:19:36.903Z,1009.25
2018-01-24T10:20:36.884Z,1009.27
2018-01-24T10:21:36.858Z,1009.31
2018-01-24T10:22:36.837Z,1009.30
2018-01-24T10:23:36.821Z,1009.26
2018-01-24T10:24:36.813Z,1009.23
2018-01-24T10:25:36.769Z,1009.26
2018-01-24T10:26:36.742Z,1009.17
2018-01-24T10:27:36.725Z,1009.16
2018-01-24T10:28:36.699Z,1009.14
2018-01-24T10:29:36.727Z,1009.10
2018-01-24T10:30:36.650Z,1009.20
2018-01-24T10:31:36.644Z,1009.11
2018-01-24T10:32:36.609Z,1009.09
2018-01-24T10:33:36.584Z,1009.03
2018-01-24T10:34:36.561Z,1009.05
2018-01-24T10:35:36.540Z,1009.08
2018-01-24T10:36:36.525Z,1008.99
2018-01-24T10:37:36.504Z,1009.03
2018-01-24T10:38:36.457Z,1008.96
2018-01-24T10:39:36.452Z,1008.96
2018-01-24T10:40:36.419Z,1008.94
2018-01-24T10:41:36.398Z,1008.96
2018-01-24T10:42:36.385Z,1008.96
2018-01-24T10:43:36.351Z,1008.88
2018-01-24T10:44:36.336Z,1008.88
2018-01-24T10:45:36.318Z,1008.88
2018-01-24T10:46:36.304Z,1008.85
2018-01-24T10:47:36.258Z,1008.87
2018-01-24T10:48:36.248Z,1008.83
2018-01-24T10:49:36.215Z,1008.87
2018-01-24T10:50:36.191Z,1008.82
2018-01-24T10:51:37.817Z,1008.79
2018-01-24T10:52:36.647Z,1008.78
2018-01-24T10:53:37.448Z,1008.71
2018-01-24T10:54:37.421Z,1008.76
2018-01-24T10:55:36.601Z,1008.70
2018-01-24T10:56:37.525Z,1008.60
2018-01-24T10:57:36.415Z,1008.67
2018-01-24T10:58:37.295Z,1008.59
2018-01-24T10:59:37.292Z,1008.51
2018-01-24T11:00:37.478Z,1008.51
2018-01-24T11:01:36.571Z,1008.55
2018-01-24T11:02:37.367Z,1008.54
2018-01-24T11:03:37.012Z,1008.59
2018-01-24T11:04:36.466Z,1008.52
2018-01-24T11:05:35.900Z,1008.52
2018-01-24T11:06:35.840Z,1008.51
2018-01-24T11:07:35.803Z,1008.52
2018-01-24T11:08:35.778Z,1008.49
2018-01-24T11:09:35.763Z,1008.49
2018-01-24T11:10:35.753Z,1008.52
2018-01-24T11:11:35.715Z,1008.46
2018-01-24T11:12:35.705Z,1008.45
2018-01-24T11:13:35.676Z,1008.49
2018-01-24T11:14:35.645Z,1008.30
2018-01-24T11:15:35.621Z,1008.45
2018-01-24T11:16:35.618Z,1008.30
2018-01-24T11:17:35.578Z,1008.34
2018-01-24T11:18:35.562Z,1008.30
2018-01-24T11:19:35.534Z,1008.20
2018-01-24T11:20:35.512Z,1008.17
2018-01-24T11:21:35.491Z,1008.13
2018-01-24T11:22:35.472Z,1008.03
2018-01-24T11:23:35.447Z,1008.05
2018-01-24T11:24:35.422Z,1007.92
2018-01-24T11:25:35.405Z,1007.98
2018-01-24T11:26:35.389Z,1007.99
2018-01-24T11:27:35.363Z,1007.90
2018-01-24T11:28:35.324Z,1007.88
2018-01-24T11:29:35.360Z,1007.95
2018-01-24T11:30:35.285Z,1007.91
2018-01-24T11:31:35.265Z,1007.94
2018-01-24T11:32:35.233Z,1007.95
2018-01-24T11:33:35.222Z,1007.95
2018-01-24T11:34:35.211Z,1008.00
2018-01-24T11:35:35.169Z,1007.84
2018-01-24T11:36:35.149Z,1007.91
2018-01-24T11:37:35.138Z,1007.89
2018-01-24T11:38:35.112Z,1007.85
2018-01-24T11:39:35.136Z,1007.90
2018-01-24T11:40:35.064Z,1007.84
2018-01-24T11:41:35.032Z,1007.81
2018-01-24T11:42:35.020Z,1007.80
2018-01-24T11:43:34.999Z,1007.76
2018-01-24T11:44:34.996Z,1007.78
2018-01-24T11:45:34.942Z,1007.75
2018-01-24T11:46:34.920Z,1007.75
2018-01-24T11:47:34.909Z,1007.75
2018-01-24T11:48:34.915Z,1007.72
2018-01-24T11:49:34.857Z,1007.69
2018-01-24T11:50:34.842Z,1007.72
2018-01-24T11:51:34.828Z,1007.64
2018-01-24T11:52:34.779Z,1007.63
2018-01-24T11:53:34.777Z,1007.60
2018-01-24T11:54:34.740Z,1007.71
2018-01-24T11:55:34.714Z,1007.68
2018-01-24T11:56:34.717Z,1007.72
2018-01-24T11:57:34.694Z,1007.61
2018-01-24T11:58:34.657Z,1007.62
2018-01-24T11:59:34.643Z,1007.57
2018-01-24T12:00:34.606Z,1007.55
2018-01-24T12:01:34.589Z,1007.52
2018-01-24T12:02:34.561Z,1007.47
2018-01-24T12:03:34.542Z,1007.54
2018-01-24T12:04:34.532Z,1007.42
2018-01-24T12:05:34.492Z,1007.38